Time;durP1;ratioP1;P1;durP2;ratioP2;P2;SDS_P1;SDS_P2;PMS_P1;PMS_P2;Temp;Humidity;BMP_temperature;BMP_pressure;BME280_temperature;BME280_humidity;BME280_pressure;Samples;Min_cycle;Max_cycle;Signal;HPM_P1;HPM_P2
2022/08/02 00:02:20;;;;;;;1.30;0.80;;;;;;;17.78;100.00;96396.44;5096732;27;20023;-76
2022/08/02 00:04:46;;;;;;;2.38;1.15;;;;;;;17.72;100.00;96392.69;5101020;27;20054;-77
2022/08/02 00:07:13;;;;;;;2.33;1.30;;;;;;;17.69;100.00;96390.44;5118845;27;20392;-76
2022/08/02 00:09:39;;;;;;;3.05;1.17;;;;;;;17.67;100.00;96389.81;5114074;27;20027;-77
2022/08/02 00:12:05;;;;;;;2.63;1.10;;;;;;;17.63;100.00;96378.75;5081339;27;20080;-76
2022/08/02 00:14:31;;;;;;;2.00;1.00;;;;;;;17.63;100.00;96385.91;5097916;28;20028;-77
2022/08/02 00:16:56;;;;;;;2.10;1.10;;;;;;;17.53;100.00;96383.63;5103078;27;20049;-77
2022/08/02 00:19:22;;;;;;;2.80;1.20;;;;;;;17.50;100.00;96386.69;5119742;27;20031;-77
2022/08/02 00:21:48;;;;;;;2.97;1.50;;;;;;;17.41;100.00;96385.22;5117442;27;21265;-77
2022/08/02 00:24:13;;;;;;;2.50;0.95;;;;;;;17.36;100.00;96393.78;5120452;27;20538;-76
2022/08/02 00:26:39;;;;;;;2.78;1.25;;;;;;;17.35;100.00;96392.16;5115450;27;20038;-77
2022/08/02 00:29:05;;;;;;;3.08;1.10;;;;;;;17.33;100.00;96390.69;5098803;28;20059;-77
2022/08/02 00:31:31;;;;;;;1.25;1.10;;;;;;;17.31;100.00;96390.91;5114562;27;20111;-76
2022/08/02 00:33:57;;;;;;;1.80;1.10;;;;;;;17.30;100.00;96385.78;5118927;27;20045;-77
2022/08/02 00:36:22;;;;;;;3.20;1.40;;;;;;;17.21;100.00;96382.47;5116947;27;20308;-77
2022/08/02 00:38:49;;;;;;;1.88;0.93;;;;;;;17.22;100.00;96385.97;5121102;27;20023;-77
2022/08/02 00:41:18;;;;;;;2.00;1.10;;;;;;;17.23;100.00;96387.59;5104713;28;20110;-77
2022/08/02 00:43:45;;;;;;;3.03;1.23;;;;;;;17.16;100.00;96377.75;5133045;27;20047;-77
2022/08/02 00:46:13;;;;;;;1.40;0.98;;;;;;;17.23;100.00;96382.28;5111701;27;20548;-76
2022/08/02 00:48:38;;;;;;;2.45;1.20;;;;;;;17.13;100.00;96383.44;5098741;27;20027;-77
2022/08/02 00:51:04;;;;;;;2.83;1.20;;;;;;;17.16;100.00;96385.72;5085195;27;20041;-77
2022/08/02 00:53:31;;;;;;;3.28;1.30;;;;;;;17.08;100.00;96388.53;5086102;27;20054;-77
2022/08/02 00:55:57;;;;;;;1.58;1.10;;;;;;;17.10;100.00;96397.16;5106981;27;20027;-77
2022/08/02 00:58:22;;;;;;;2.00;1.27;;;;;;;17.01;100.00;96400.97;5100439;27;20034;-77
2022/08/02 01:00:48;;;;;;;1.67;1.13;;;;;;;17.06;100.00;96403.84;5118577;27;20026;-77
2022/08/02 01:03:14;;;;;;;2.03;1.08;;;;;;;17.12;100.00;96397.75;5096696;27;20053;-77
2022/08/02 01:05:40;;;;;;;1.77;1.30;;;;;;;16.98;100.00;96396.06;5084243;27;20457;-76
2022/08/02 01:08:05;;;;;;;2.47;1.30;;;;;;;16.93;100.00;96399.31;5120461;27;20108;-77
2022/08/02 01:10:31;;;;;;;2.35;1.20;;;;;;;16.88;100.00;96395.56;5121805;27;20028;-76
2022/08/02 01:12:57;;;;;;;3.42;1.30;;;;;;;16.83;100.00;96405.94;5101801;27;20411;-77
2022/08/02 01:15:23;;;;;;;1.67;1.20;;;;;;;16.76;100.00;96399.78;5121399;27;20031;-77
2022/08/02 01:18:13;;;;;;;1.95;1.40;;;;;;;16.71;100.00;96401.16;5103239;27;20602;-77
2022/08/02 01:20:50;;;;;;;2.67;1.15;;;;;;;16.68;100.00;96409.50;5118064;27;20037;-77
2022/08/02 01:23:39;;;;;;;1.98;1.10;;;;;;;16.72;100.00;96410.75;5087891;27;20084;-76
2022/08/02 01:26:26;;;;;;;2.45;1.40;;;;;;;16.75;100.00;96408.78;5125312;27;20122;-76
2022/08/02 01:29:12;;;;;;;2.53;1.50;;;;;;;16.77;100.00;96412.88;5102576;27;20063;-76
2022/08/02 01:31:54;;;;;;;3.33;1.63;;;;;;;16.72;100.00;96413.41;5084195;27;20036;-77
2022/08/02 01:34:41;;;;;;;4.63;2.83;;;;;;;16.78;100.00;96408.38;5116105;27;20032;-77
2022/08/02 01:37:25;;;;;;;4.43;2.53;;;;;;;16.76;100.00;96407.75;5101697;27;20148;-77
2022/08/02 01:39:56;;;;;;;2.50;1.38;;;;;;;16.73;100.00;96415.06;5107560;27;20019;-76
2022/08/02 01:42:25;;;;;;;2.78;1.27;;;;;;;16.72;100.00;96421.38;5102915;27;20052;-77
2022/08/02 01:44:52;;;;;;;2.08;1.50;;;;;;;16.65;100.00;96419.69;5122402;27;20055;-77
2022/08/02 01:47:23;;;;;;;3.45;1.38;;;;;;;16.63;100.00;96413.75;5122189;27;20046;-77
2022/08/02 01:49:51;;;;;;;2.15;1.35;;;;;;;16.58;100.00;96417.00;5120313;27;20039;-77
2022/08/02 01:52:20;;;;;;;2.80;1.60;;;;;;;16.63;100.00;96414.59;5126761;27;20050;-77
2022/08/02 01:55:14;;;;;;;1.98;1.35;;;;;;;16.65;100.00;96412.53;5120179;27;20040;-76
2022/08/02 01:57:43;;;;;;;;;;;;;;;16.59;100.00;96418.63;5095941;27;20038;-77
2022/08/02 02:00:10;;;;;;;2.63;1.50;;;;;;;16.56;100.00;96424.31;5106163;27;19927;-76
2022/08/02 02:02:40;;;;;;;2.50;1.48;;;;;;;16.57;100.00;96431.28;5108879;27;20035;-77
2022/08/02 02:05:11;;;;;;;3.17;1.50;;;;;;;16.50;100.00;96433.88;5107878;27;20118;-77
2022/08/02 02:07:37;;;;;;;2.58;1.48;;;;;;;16.47;100.00;96433.44;5125074;27;20759;-76
2022/08/02 02:10:07;;;;;;;2.85;1.30;;;;;;;16.45;100.00;96430.97;5122828;27;20064;-77
2022/08/02 02:12:36;;;;;;;1.70;1.27;;;;;;;16.48;100.00;96432.41;5108985;27;20035;-77
2022/08/02 02:15:02;;;;;;;3.80;1.50;;;;;;;16.43;100.00;96443.63;5122920;27;20031;-77
2022/08/02 02:17:30;;;;;;;2.13;1.10;;;;;;;16.40;100.00;96435.22;5131081;27;20035;-77
2022/08/02 02:19:58;;;;;;;2.20;1.50;;;;;;;16.36;100.00;96432.09;5086980;27;20027;-77
2022/08/02 02:22:24;;;;;;;2.92;1.27;;;;;;;16.39;100.00;96422.94;5106091;27;20043;-77
2022/08/02 02:24:50;;;;;;;2.15;1.40;;;;;;;16.23;100.00;96438.13;5104126;27;20035;-77
2022/08/02 02:27:16;;;;;;;1.98;1.20;;;;;;;16.29;100.00;96438.38;5103729;27;20092;-77
2022/08/02 02:29:45;;;;;;;3.95;1.50;;;;;;;16.32;100.00;96438.00;5105807;27;20543;-77
2022/08/02 02:32:14;;;;;;;2.55;1.40;;;;;;;16.30;100.00;96432.03;5100492;27;20110;-76
2022/08/02 02:34:44;;;;;;;2.65;1.45;;;;;;;16.30;100.00;96432.03;5119755;27;20023;-77
2022/08/02 02:37:17;;;;;;;2.30;1.40;;;;;;;16.20;100.00;96435.84;5094241;27;20039;-77
2022/08/02 02:39:44;;;;;;;3.95;1.60;;;;;;;16.13;100.00;96429.66;5121926;27;20366;-77
2022/08/02 02:42:15;;;;;;;2.88;1.65;;;;;;;16.20;100.00;96425.25;5097607;27;20084;-75
2022/08/02 02:44:43;;;;;;;3.15;1.58;;;;;;;16.23;100.00;96429.31;5104712;27;20038;-77
2022/08/02 02:47:10;;;;;;;3.75;1.55;;;;;;;16.22;100.00;96427.69;5103891;27;20031;-77
2022/08/02 02:49:37;;;;;;;3.67;2.15;;;;;;;16.18;100.00;96435.22;5108590;27;20050;-77
2022/08/02 02:52:05;;;;;;;2.95;1.88;;;;;;;16.15;100.00;96437.41;5104636;27;20054;-77
2022/08/02 02:54:33;;;;;;;2.83;2.00;;;;;;;16.15;100.00;96443.53;5095370;27;20034;-77
2022/08/02 02:57:01;;;;;;;2.85;1.90;;;;;;;16.09;100.00;96444.28;5117504;27;20113;-76
2022/08/02 02:59:27;;;;;;;3.35;2.20;;;;;;;16.12;100.00;96438.63;5101089;27;20030;-77
2022/08/02 03:01:53;;;;;;;4.35;2.28;;;;;;;16.13;100.00;96439.44;5107250;27;20027;-77
2022/08/02 03:04:20;;;;;;;3.72;2.25;;;;;;;16.08;100.00;96449.81;5123163;27;20027;-77
2022/08/02 03:06:46;;;;;;;4.20;2.20;;;;;;;16.13;100.00;96440.28;5106058;27;20027;-77
2022/08/02 03:09:12;;;;;;;4.20;2.50;;;;;;;16.15;100.00;96443.53;5115448;27;20035;-77
2022/08/02 03:11:39;;;;;;;5.95;2.72;;;;;;;16.16;100.00;96445.22;5100300;27;20031;-76
2022/08/02 03:14:09;;;;;;;4.80;2.83;;;;;;;16.12;100.00;96440.44;5100797;27;20118;-77
2022/08/02 03:16:42;;;;;;;5.70;2.63;;;;;;;16.12;100.00;96440.44;5118242;27;20392;-77
2022/08/02 03:19:07;;;;;;;4.50;2.65;;;;;;;15.97;100.00;96437.88;5111078;27;20042;-76
2022/08/02 03:21:33;;;;;;;5.82;3.10;;;;;;;15.81;100.00;96443.38;5087395;27;20093;-76
2022/08/02 03:23:59;;;;;;;4.00;2.45;;;;;;;15.90;100.00;96444.94;5081489;27;20023;-77
2022/08/02 03:26:24;;;;;;;5.88;2.72;;;;;;;15.87;100.00;96442.66;5115612;27;20080;-77
2022/08/02 03:28:50;;;;;;;3.10;1.90;;;;;;;15.73;100.00;96447.81;5115384;27;20353;-76
2022/08/02 03:31:16;;;;;;;3.97;2.35;;;;;;;15.68;100.00;96447.53;5097488;27;20039;-76
2022/08/02 03:33:41;;;;;;;5.70;2.78;;;;;;;15.69;100.00;96448.34;5118022;27;20027;-77
2022/08/02 03:36:11;;;;;;;3.85;2.47;;;;;;;15.71;100.00;96441.84;5099855;27;20066;-77
2022/08/02 03:38:39;;;;;;;5.38;2.35;;;;;;;15.64;100.00;96446.22;5116165;27;20396;-76
2022/08/02 03:41:05;;;;;;;4.70;2.35;;;;;;;15.68;100.00;96446.69;5091364;27;20099;-77
2022/08/02 03:43:31;;;;;;;3.67;2.17;;;;;;;15.79;100.00;96451.50;5096723;27;20035;-77
2022/08/02 03:45:58;;;;;;;4.05;2.20;;;;;;;15.79;100.00;96449.72;5100322;27;20054;-77
2022/08/02 03:48:26;;;;;;;3.53;2.00;;;;;;;15.83;100.00;96438.69;5120057;27;20058;-76
2022/08/02 03:50:53;;;;;;;3.85;2.30;;;;;;;15.80;100.00;96445.22;5121160;27;20544;-77
2022/08/02 03:53:19;;;;;;;3.90;2.05;;;;;;;15.84;100.00;96441.19;5103331;27;20043;-76
2022/08/02 03:55:46;;;;;;;4.43;2.42;;;;;;;15.91;100.00;96446.56;5087044;27;20038;-76
2022/08/02 03:58:19;;;;;;;8.23;2.70;;;;;;;15.91;100.00;96446.56;5125659;27;20035;-76
2022/08/02 04:00:45;;;;;;;4.13;2.75;;;;;;;15.92;100.00;96461.47;5122158;27;20744;-76
2022/08/02 04:03:11;;;;;;;9.45;3.30;;;;;;;15.93;100.00;96461.28;5119927;27;20058;-76
2022/08/02 04:05:36;;;;;;;4.65;3.20;;;;;;;15.92;100.00;96454.31;5116028;27;20562;-76
2022/08/02 04:08:02;;;;;;;4.82;3.15;;;;;;;15.94;100.00;96451.50;5120523;27;20027;-75
2022/08/02 04:10:28;;;;;;;5.40;3.28;;;;;;;15.93;100.00;96458.63;5101808;28;20142;-76
2022/08/02 04:12:55;;;;;;;4.78;3.05;;;;;;;16.00;100.00;96456.06;5124238;27;20061;-76
2022/08/02 04:15:22;;;;;;;6.05;3.40;;;;;;;15.94;100.00;96462.09;5119205;27;20039;-76
2022/08/02 04:17:55;;;;;;;5.78;3.33;;;;;;;15.91;100.00;96467.78;5124534;27;20023;-76
2022/08/02 04:20:27;;;;;;;7.20;3.70;;;;;;;16.01;100.00;96465.66;5098998;27;20044;-76
2022/08/02 04:23:06;;;;;;;7.32;3.47;;;;;;;15.96;100.00;96466.22;5123170;27;20072;-76
2022/08/02 04:25:34;;;;;;;6.03;3.08;;;;;;;15.70;100.00;96469.38;5113171;27;20027;-77
2022/08/02 04:28:01;;;;;;;6.70;3.22;;;;;;;15.80;100.00;96469.09;5107111;27;20035;-76
2022/08/02 04:30:28;;;;;;;4.70;2.83;;;;;;;15.98;100.00;96469.50;5123842;27;20031;-77
2022/08/02 04:32:54;;;;;;;4.63;3.05;;;;;;;16.05;100.00;96468.75;5090627;27;20088;-76
2022/08/02 04:35:21;;;;;;;8.57;5.65;;;;;;;16.16;100.00;96476.19;5122672;27;20027;-76
2022/08/02 04:37:47;;;;;;;11.60;6.05;;;;;;;16.25;100.00;96470.59;5122440;27;20522;-76
2022/08/02 04:40:14;;;;;;;6.28;3.92;;;;;;;16.22;100.00;96481.56;5120346;27;20484;-76
2022/08/02 04:42:40;;;;;;;5.65;4.05;;;;;;;16.36;100.00;96479.06;5125481;27;20035;-77
2022/08/02 04:45:06;;;;;;;5.15;3.67;;;;;;;16.33;100.00;96476.78;5101819;27;20114;-77
2022/08/02 04:47:33;;;;;;;6.72;4.22;;;;;;;16.43;100.00;96488.75;5117970;27;20031;-77
2022/08/02 04:49:58;;;;;;;6.93;4.65;;;;;;;16.49;100.00;96481.84;5102197;27;20080;-77
2022/08/02 04:52:24;;;;;;;5.90;3.28;;;;;;;16.55;100.00;96475.78;5125709;27;20864;-77
2022/08/02 04:54:50;;;;;;;5.50;3.53;;;;;;;16.59;100.00;96487.66;5099521;27;20035;-76
2022/08/02 05:00:01;;;;;;;5.18;3.33;;;;;;;16.87;100.00;96481.59;5098130;27;20034;-77
2022/08/02 05:02:27;;;;;;;5.97;3.63;;;;;;;16.99;100.00;96487.19;5087364;27;20516;-76
2022/08/02 05:04:53;;;;;;;5.82;3.55;;;;;;;16.97;100.00;96484.75;5102466;27;20033;-77
2022/08/02 05:07:18;;;;;;;6.38;4.03;;;;;;;16.92;100.00;96490.63;5125506;27;20089;-76
2022/08/02 05:09:44;;;;;;;6.45;3.60;;;;;;;17.06;100.00;96486.22;5110350;27;20108;-76
2022/08/02 05:12:10;;;;;;;6.82;3.90;;;;;;;17.13;100.00;96495.06;5106639;27;20031;-75
2022/08/02 05:14:35;;;;;;;8.02;4.72;;;;;;;16.98;100.00;96489.03;5116543;27;20062;-76
2022/08/02 05:17:01;;;;;;;4.90;3.40;;;;;;;17.22;100.00;96479.78;5118071;27;20054;-76
2022/08/02 05:19:27;;;;;;;5.78;3.65;;;;;;;17.19;100.00;96477.53;5101392;27;20082;-77
2022/08/02 05:21:52;;;;;;;5.78;3.72;;;;;;;17.54;100.00;96469.53;5122355;27;20389;-77
2022/08/02 05:24:18;;;;;;;8.60;4.47;;;;;;;17.62;100.00;96467.53;5120181;27;20062;-76
2022/08/02 05:26:43;;;;;;;9.00;4.07;;;;;;;17.69;100.00;96467.56;5102259;27;20024;-77
2022/08/02 05:29:09;;;;;;;5.65;3.85;;;;;;;17.85;100.00;96466.44;5118909;27;20035;-76
2022/08/02 05:31:35;;;;;;;6.57;3.95;;;;;;;18.05;100.00;96462.00;5102905;27;20556;-75
2022/08/02 05:34:00;;;;;;;7.22;3.67;;;;;;;18.17;100.00;96456.91;5123657;27;20019;-77
2022/08/02 05:36:26;;;;;;;6.85;3.67;;;;;;;18.20;100.00;96461.81;5107128;27;20031;-77
2022/08/02 05:38:52;;;;;;;6.43;3.53;;;;;;;18.19;100.00;96459.38;5100513;27;20036;-77
2022/08/02 05:41:19;;;;;;;6.22;3.72;;;;;;;18.43;100.00;96457.97;5100856;27;20034;-76
2022/08/02 05:43:45;;;;;;;6.20;3.30;;;;;;;18.31;100.00;96458.59;5102833;27;20035;-76
2022/08/02 05:46:11;;;;;;;6.50;3.83;;;;;;;18.76;100.00;96448.19;5102575;27;20027;-76
2022/08/02 05:48:37;;;;;;;5.05;2.92;;;;;;;18.90;100.00;96446.34;5122538;27;20499;-76
2022/08/02 05:51:09;;;;;;;4.25;2.83;;;;;;;19.15;100.00;96440.34;5137877;27;20107;-76
2022/08/02 05:53:49;;;;;;;6.55;3.30;;;;;;;19.36;100.00;96440.13;5110949;27;20035;-75
2022/08/02 05:56:32;;;;;;;4.97;2.92;;;;;;;19.78;100.00;96445.94;5124025;27;20031;-76
2022/08/02 05:59:10;;;;;;;;;;;;;;;19.76;100.00;96448.84;5136770;27;20074;-76
2022/08/02 06:01:42;;;;;;;5.57;3.08;;;;;;;19.35;100.00;96450.97;5128436;27;19912;-76
2022/08/02 06:04:10;;;;;;;5.25;3.42;;;;;;;19.65;100.00;96454.00;5105323;27;20066;-76
2022/08/02 06:06:42;;;;;;;5.38;3.17;;;;;;;19.97;100.00;96458.38;5115249;27;20061;-76
2022/08/02 06:09:13;;;;;;;5.13;3.17;;;;;;;20.08;100.00;96459.56;5087389;27;20030;-76
2022/08/02 06:11:48;;;;;;;6.13;3.05;;;;;;;20.56;100.00;96464.47;5140677;27;20495;-76
2022/08/02 06:14:14;;;;;;;5.35;3.53;;;;;;;20.58;100.00;96464.22;5102605;27;20410;-76
2022/08/02 06:16:42;;;;;;;4.95;3.22;;;;;;;20.90;100.00;96455.13;5125416;27;20027;-76
2022/08/02 06:19:10;;;;;;;8.77;3.10;;;;;;;20.81;100.00;96452.94;5100954;27;20126;-76
2022/08/02 06:21:37;;;;;;;5.05;3.15;;;;;;;20.92;100.00;96457.56;5105823;27;20030;-76
2022/08/02 06:24:05;;;;;;;4.80;2.97;;;;;;;21.28;100.00;96456.84;5112918;27;20395;-75
2022/08/02 06:26:32;;;;;;;5.88;2.88;;;;;;;21.53;100.00;96448.78;5112827;27;20469;-76
2022/08/02 06:28:58;;;;;;;5.90;3.05;;;;;;;21.35;100.00;96449.59;5111639;27;20066;-75
2022/08/02 06:31:24;;;;;;;6.10;3.42;;;;;;;21.56;100.00;96447.50;5103417;27;20495;-76
2022/08/02 06:33:50;;;;;;;4.65;2.88;;;;;;;21.74;100.00;96444.84;5125399;27;20031;-76
2022/08/02 06:36:26;;;;;;;5.30;3.38;;;;;;;21.99;100.00;96452.75;5117038;27;20042;-77
2022/08/02 06:38:55;;;;;;;4.25;2.83;;;;;;;22.21;100.00;96460.34;5096990;27;20305;-76
2022/08/02 06:41:23;;;;;;;4.20;2.80;;;;;;;22.56;100.00;96457.75;5118783;27;20419;-76
2022/08/02 06:44:02;;;;;;;4.93;3.00;;;;;;;22.60;100.00;96461.59;5137632;27;20045;-76
2022/08/02 06:46:29;;;;;;;9.43;4.00;;;;;;;22.47;100.00;96449.25;5116308;27;20032;-76
2022/08/02 06:48:56;;;;;;;6.10;3.20;;;;;;;22.96;100.00;96446.44;5129359;27;20023;-76
2022/08/02 06:51:22;;;;;;;5.03;3.60;;;;;;;22.53;100.00;96452.84;5140661;27;20023;-76
2022/08/02 06:53:48;;;;;;;4.75;3.05;;;;;;;22.56;100.00;96452.41;5112114;27;20114;-76
2022/08/02 06:56:14;;;;;;;6.20;3.80;;;;;;;22.66;100.00;96454.53;5115300;27;20460;-76
2022/08/02 06:58:40;;;;;;;6.47;3.47;;;;;;;22.99;100.00;96445.97;5116423;27;20023;-76
2022/08/02 07:01:06;;;;;;;6.15;3.67;;;;;;;23.62;100.00;96445.22;5116192;27;20536;-77
2022/08/02 07:03:39;;;;;;;4.80;3.13;;;;;;;23.56;100.00;96448.03;5126303;27;20043;-76
2022/08/02 07:06:08;;;;;;;5.97;3.90;;;;;;;23.66;100.00;96449.06;5143620;27;20058;-77
2022/08/02 07:08:36;;;;;;;5.53;3.35;;;;;;;23.61;100.00;96451.66;5130088;27;20035;-76
2022/08/02 07:11:02;;;;;;;5.78;3.42;;;;;;;24.42;100.00;96449.81;5099040;27;20046;-77
2022/08/02 07:13:28;;;;;;;5.97;3.38;;;;;;;24.78;97.67;96446.91;5114907;27;20038;-76
2022/08/02 07:15:55;;;;;;;4.85;3.22;;;;;;;25.46;95.20;96448.50;5121144;27;20109;-77
2022/08/02 07:18:21;;;;;;;6.35;3.58;;;;;;;25.85;91.38;96437.72;5132452;27;20042;-77
2022/08/02 07:20:47;;;;;;;5.97;3.85;;;;;;;25.29;93.43;96442.34;5125230;27;20114;-77
2022/08/02 07:23:13;;;;;;;8.18;3.40;;;;;;;24.48;98.60;96445.34;5109234;27;20508;-77
2022/08/02 07:25:40;;;;;;;5.38;2.97;;;;;;;24.49;100.00;96438.91;5122505;27;20035;-77
2022/08/02 07:28:08;;;;;;;7.00;5.05;;;;;;;24.44;100.00;96442.28;5135338;27;20046;-76
2022/08/02 07:30:34;;;;;;;7.53;4.90;;;;;;;24.93;98.43;96439.09;5116658;27;20039;-77
2022/08/02 07:33:01;;;;;;;7.82;3.92;;;;;;;25.07;94.96;96434.19;5126894;27;20535;-77
2022/08/02 07:35:27;;;;;;;6.22;3.42;;;;;;;25.65;91.99;96440.94;5102312;27;20038;-77
2022/08/02 07:37:53;;;;;;;5.15;3.65;;;;;;;25.08;95.03;96436.66;5137959;27;20042;-77
2022/08/02 07:40:19;;;;;;;7.10;3.65;;;;;;;25.71;91.00;96436.44;5116588;27;20031;-76
2022/08/02 07:42:46;;;;;;;8.05;3.03;;;;;;;26.03;88.58;96432.00;5127873;27;20023;-77
2022/08/02 07:45:13;;;;;;;7.47;3.70;;;;;;;26.09;87.08;96440.97;5121743;27;20030;-77
2022/08/02 07:47:40;;;;;;;6.22;3.80;;;;;;;26.42;83.92;96431.06;5127618;27;20056;-77
2022/08/02 07:50:07;;;;;;;5.28;3.75;;;;;;;26.36;82.90;96435.59;5141328;27;20042;-77
2022/08/02 07:52:33;;;;;;;6.97;4.28;;;;;;;26.24;80.94;96440.31;5114928;27;20061;-77
2022/08/02 07:54:59;;;;;;;6.18;3.65;;;;;;;26.39;82.78;96435.09;5105618;27;20467;-77
2022/08/02 07:57:24;;;;;;;6.47;3.88;;;;;;;26.90;80.29;96437.47;5135803;27;20105;-77
2022/08/02 07:59:50;;;;;;;6.40;4.15;;;;;;;26.65;80.17;96440.75;5140296;27;20577;-77
2022/08/02 08:02:17;;;;;;;10.02;7.00;;;;;;;26.62;79.03;96428.56;5117857;28;20065;-77
2022/08/02 08:04:43;;;;;;;7.65;3.95;;;;;;;26.60;78.70;96428.03;5133111;27;20023;-78
2022/08/02 08:07:10;;;;;;;8.32;4.13;;;;;;;26.51;77.52;96433.06;5147215;27;20038;-77
2022/08/02 08:09:40;;;;;;;5.95;4.05;;;;;;;26.67;76.99;96433.22;5139554;27;20039;-77
2022/08/02 08:12:07;;;;;;;6.40;4.30;;;;;;;26.89;75.65;96435.81;5111926;28;20050;-77
2022/08/02 08:14:33;;;;;;;7.25;4.32;;;;;;;27.24;72.21;96430.69;5117564;28;20038;-77
2022/08/02 08:16:59;;;;;;;7.18;3.83;;;;;;;27.64;73.20;96433.91;5107788;27;20024;-76
2022/08/02 08:19:24;;;;;;;4.65;3.42;;;;;;;27.59;72.52;96433.84;5116508;27;20061;-77
2022/08/02 08:21:50;;;;;;;6.18;3.65;;;;;;;27.89;68.96;96433.22;5101373;27;20026;-77
2022/08/02 08:24:16;;;;;;;7.50;3.53;;;;;;;28.56;65.30;96434.22;5129096;27;20035;-77
2022/08/02 08:26:42;;;;;;;5.90;4.35;;;;;;;28.01;67.80;96433.00;5124826;27;20034;-77
2022/08/02 08:29:08;;;;;;;10.07;3.88;;;;;;;28.10;66.18;96444.91;5103415;27;20034;-77
2022/08/02 08:31:33;;;;;;;6.20;4.10;;;;;;;29.00;63.64;96431.00;5137933;27;20023;-77
2022/08/02 08:33:59;;;;;;;5.70;3.40;;;;;;;29.30;60.17;96427.44;5123374;27;20061;-77
2022/08/02 08:36:25;;;;;;;7.00;4.05;;;;;;;28.22;67.03;96445.50;5119615;27;20045;-77
2022/08/02 08:38:51;;;;;;;5.35;3.45;;;;;;;29.20;59.55;96430.19;5140909;27;20023;-77
2022/08/02 08:41:18;;;;;;;5.63;3.72;;;;;;;29.25;61.30;96436.41;5115773;28;20042;-77
2022/08/02 08:43:46;;;;;;;6.00;4.43;;;;;;;28.37;65.18;96442.00;5137949;27;20027;-77
2022/08/02 08:46:22;;;;;;;8.38;4.30;;;;;;;29.27;58.81;96438.84;5111534;27;20049;-77
2022/08/02 08:48:52;;;;;;;5.70;4.40;;;;;;;29.86;55.38;96437.34;5100616;27;20427;-77
2022/08/02 08:51:20;;;;;;;4.90;3.42;;;;;;;31.12;49.65;96432.25;5123090;27;20039;-77
2022/08/02 08:53:48;;;;;;;6.97;3.50;;;;;;;30.16;53.00;96439.13;5095014;27;20023;-77
2022/08/02 08:56:15;;;;;;;5.60;3.65;;;;;;;29.58;57.60;96443.13;5135994;27;20480;-77
2022/08/02 08:58:42;;;;;;;7.13;3.85;;;;;;;30.34;51.39;96443.09;5099321;27;20068;-77
2022/08/02 09:01:08;;;;;;;10.10;3.35;;;;;;;29.47;53.03;96449.63;5104440;27;20765;-77
2022/08/02 09:03:34;;;;;;;4.85;3.28;;;;;;;30.37;51.83;96442.56;5139319;27;20034;-77
2022/08/02 09:06:00;;;;;;;6.68;4.10;;;;;;;30.48;51.86;96441.38;5134579;27;20086;-77
2022/08/02 09:08:25;;;;;;;7.82;4.68;;;;;;;29.49;59.91;96442.03;5139250;27;20650;-77
2022/08/02 09:10:51;;;;;;;6.57;4.72;;;;;;;29.90;55.22;96441.13;5097341;27;20054;-77
2022/08/02 09:13:23;;;;;;;6.03;4.20;;;;;;;30.50;49.47;96444.63;5140325;27;20045;-77
2022/08/02 09:15:58;;;;;;;7.28;3.88;;;;;;;30.45;51.28;96444.66;5128403;27;20072;-77
2022/08/02 09:18:33;;;;;;;6.18;3.40;;;;;;;31.07;48.24;96440.44;5106325;27;20034;-77
2022/08/02 09:21:09;;;;;;;5.68;4.18;;;;;;;31.94;46.50;96439.56;5138391;27;20023;-77
2022/08/02 09:23:40;;;;;;;6.20;3.80;;;;;;;31.23;48.38;96444.63;5103908;27;20031;-78
2022/08/02 09:26:10;;;;;;;5.15;3.40;;;;;;;32.42;45.24;96447.66;5125825;27;20031;-78
2022/08/02 09:28:38;;;;;;;4.13;3.05;;;;;;;32.27;45.03;96442.41;5142299;27;20031;-77
2022/08/02 09:31:14;;;;;;;4.72;3.08;;;;;;;31.35;46.70;96435.28;5139405;27;20042;-77
2022/08/02 09:33:42;;;;;;;5.22;2.95;;;;;;;31.34;45.16;96433.69;5104746;27;20487;-77
2022/08/02 09:36:14;;;;;;;4.93;3.17;;;;;;;31.89;43.48;96431.47;5120615;27;20050;-78
2022/08/02 09:38:51;;;;;;;5.43;3.77;;;;;;;32.75;41.21;96439.56;5126888;27;20114;-78
2022/08/02 09:41:26;;;;;;;4.47;2.88;;;;;;;33.16;41.15;96430.72;5127470;27;20460;-78
2022/08/02 09:43:53;;;;;;;4.15;3.00;;;;;;;30.59;44.66;96434.00;5137509;27;20092;-77
2022/08/02 09:46:24;;;;;;;3.95;2.55;;;;;;;30.83;45.37;96436.84;5102471;27;20027;-77
2022/08/02 09:49:03;;;;;;;6.90;3.00;;;;;;;29.42;49.32;96430.69;5140213;27;20039;-78
2022/08/02 09:51:34;;;;;;;3.78;2.67;;;;;;;29.63;49.69;96433.38;5140422;27;20399;-77
2022/08/02 09:54:05;;;;;;;3.53;2.50;;;;;;;28.85;53.95;96435.31;5099139;27;20110;-77
2022/08/02 09:56:46;;;;;;;5.13;3.35;;;;;;;28.63;55.58;96427.47;5139937;27;20119;-77
2022/08/02 09:59:13;;;;;;;8.38;2.85;;;;;;;29.07;54.76;96434.25;5113067;27;20035;-77
2022/08/02 10:01:41;;;;;;;4.90;3.05;;;;;;;29.27;53.21;96423.38;5122585;27;20035;-77
2022/08/02 10:04:10;;;;;;;4.57;2.97;;;;;;;28.98;52.39;96422.34;5143673;27;20159;-78
2022/08/02 10:06:37;;;;;;;5.75;3.60;;;;;;;29.41;51.37;96425.53;5117850;27;20050;-78
2022/08/02 10:09:05;;;;;;;5.57;2.72;;;;;;;30.26;46.39;96420.91;5121380;27;20038;-77
2022/08/02 10:11:32;;;;;;;4.10;2.22;;;;;;;31.96;41.06;96410.19;5137431;27;20074;-77
2022/08/02 10:13:58;;;;;;;4.50;2.40;;;;;;;32.76;39.64;96422.09;5136526;27;20488;-78
2022/08/02 10:16:24;;;;;;;5.43;2.47;;;;;;;31.91;42.94;96419.19;5120373;27;20030;-78
2022/08/02 10:18:51;;;;;;;3.60;2.75;;;;;;;33.49;37.48;96407.00;5143099;27;20027;-78
2022/08/02 10:21:32;;;;;;;3.63;2.25;;;;;;;33.24;38.23;96410.97;5120931;27;20030;-77
2022/08/02 10:24:20;;;;;;;3.17;1.80;;;;;;;33.02;38.35;96414.34;5099412;27;20388;-78
2022/08/02 10:26:47;;;;;;;2.58;1.88;;;;;;;33.02;36.04;96412.44;5139903;27;20046;-77
2022/08/02 10:29:18;;;;;;;4.32;1.88;;;;;;;32.80;36.65;96417.69;5137700;27;20038;-77
2022/08/02 10:31:53;;;;;;;3.22;1.88;;;;;;;32.51;36.03;96415.94;5139683;27;20027;-77
2022/08/02 10:34:26;;;;;;;3.75;1.90;;;;;;;33.15;35.57;96408.13;5153869;27;20031;-78
2022/08/02 10:36:52;;;;;;;4.50;1.60;;;;;;;33.06;34.86;96408.00;5101620;27;20055;-76
2022/08/02 10:39:18;;;;;;;3.65;1.95;;;;;;;33.18;33.24;96409.44;5135200;27;20019;-78
2022/08/02 10:41:45;;;;;;;3.08;1.95;;;;;;;32.69;34.81;96405.34;5118051;27;20506;-78
2022/08/02 10:44:28;;;;;;;3.00;1.92;;;;;;;32.44;35.68;96410.06;5130076;27;20035;-77
2022/08/02 10:47:15;;;;;;;2.13;1.60;;;;;;;32.72;34.20;96402.03;5102382;27;20041;-77
2022/08/02 10:49:51;;;;;;;6.95;2.13;;;;;;;33.10;34.13;96394.59;5126006;27;20047;-77
2022/08/02 10:52:22;;;;;;;2.22;1.70;;;;;;;33.20;33.96;96401.75;5105845;27;20105;-77
2022/08/02 10:54:56;;;;;;;4.13;1.90;;;;;;;33.30;33.38;96396.13;5144991;27;20030;-78
2022/08/02 10:57:30;;;;;;;2.33;1.75;;;;;;;32.86;31.70;96398.25;5126194;27;20491;-78
2022/08/02 11:00:00;;;;;;;1.90;1.40;;;;;;;32.72;32.71;96393.84;5130616;27;20048;-78
2022/08/02 11:02:42;;;;;;;3.95;1.92;;;;;;;30.99;35.43;96400.31;5119684;27;20039;-78
2022/08/02 11:05:08;;;;;;;3.10;1.70;;;;;;;32.46;32.15;96401.59;5150046;27;20069;-77
2022/08/02 11:07:48;;;;;;;2.83;1.58;;;;;;;31.98;34.04;96396.28;5129454;27;20486;-78
2022/08/02 11:10:23;;;;;;;2.70;1.63;;;;;;;32.21;33.78;96394.59;5134770;27;20076;-77
2022/08/02 11:13:10;;;;;;;2.20;1.65;;;;;;;32.86;32.21;96384.63;5126240;27;20035;-78
2022/08/02 11:16:13;;;;;;;2.65;1.73;;;;;;;32.77;32.39;96385.63;5115913;27;20026;-77
2022/08/02 11:18:51;;;;;;;3.13;1.42;;;;;;;33.30;31.04;96377.88;5131188;27;20027;-78
2022/08/02 11:21:25;;;;;;;1.92;1.40;;;;;;;34.60;29.65;96369.44;5096261;27;20046;-77
2022/08/02 11:23:51;;;;;;;1.95;1.33;;;;;;;31.65;32.40;96371.63;5125828;27;20030;-77
2022/08/02 11:26:29;;;;;;;3.10;1.40;;;;;;;31.92;33.76;96376.47;5130352;27;20030;-77
2022/08/02 11:29:01;;;;;;;2.83;1.25;;;;;;;32.09;32.02;96376.81;5114276;27;20058;-77
2022/08/02 11:31:27;;;;;;;1.52;1.33;;;;;;;32.12;31.69;96372.69;5127016;27;20030;-77
2022/08/02 11:33:54;;;;;;;2.28;1.23;;;;;;;32.75;30.81;96376.91;5141555;27;20031;-77
2022/08/02 11:36:20;;;;;;;2.45;1.10;;;;;;;34.40;28.82;96374.22;5138037;27;20034;-77
2022/08/02 11:38:46;;;;;;;2.15;1.70;;;;;;;35.01;28.91;96361.03;5145341;27;20051;-77
2022/08/02 11:41:24;;;;;;;2.13;1.45;;;;;;;34.19;29.94;96364.91;5139064;27;20738;-77